sensor_id;sensor_type;location;lat;lon;timestamp;temperature;humidity
75457;SHT31;64036;48.266;14.192;2023-04-01T00:01:26;10.04;70.12
75457;SHT31;64036;48.266;14.192;2023-04-01T00:03:55;10.05;70.16
75457;SHT31;64036;48.266;14.192;2023-04-01T00:10:24;10.02;70.20
75457;SHT31;64036;48.266;14.192;2023-04-01T00:13:03;10.03;70.21
75457;SHT31;64036;48.266;14.192;2023-04-01T00:15:56;9.98;70.60
75457;SHT31;64036;48.266;14.192;2023-04-01T00:18:46;9.95;70.76
75457;SHT31;64036;48.266;14.192;2023-04-01T00:21:13;9.91;70.69
75457;SHT31;64036;48.266;14.192;2023-04-01T00:23:40;9.89;70.87
75457;SHT31;64036;48.266;14.192;2023-04-01T00:26:06;9.85;71.02
75457;SHT31;64036;48.266;14.192;2023-04-01T00:28:31;9.81;71.18
75457;SHT31;64036;48.266;14.192;2023-04-01T00:31:05;9.79;71.27
75457;SHT31;64036;48.266;14.192;2023-04-01T00:33:32;9.76;71.35
75457;SHT31;64036;48.266;14.192;2023-04-01T00:36:05;9.73;71.34
75457;SHT31;64036;48.266;14.192;2023-04-01T00:38:39;9.69;71.56
75457;SHT31;64036;48.266;14.192;2023-04-01T00:41:14;9.68;71.56
75457;SHT31;64036;48.266;14.192;2023-04-01T00:43:47;9.68;71.38
75457;SHT31;64036;48.266;14.192;2023-04-01T00:46:16;9.67;71.00
75457;SHT31;64036;48.266;14.192;2023-04-01T00:48:43;9.66;70.97
75457;SHT31;64036;48.266;14.192;2023-04-01T00:51:16;9.66;70.97
75457;SHT31;64036;48.266;14.192;2023-04-01T00:53:47;9.68;70.24
75457;SHT31;64036;48.266;14.192;2023-04-01T00:56:25;9.70;70.03
75457;SHT31;64036;48.266;14.192;2023-04-01T00:59:20;9.74;69.85
75457;SHT31;64036;48.266;14.192;2023-04-01T01:01:54;9.75;70.07
75457;SHT31;64036;48.266;14.192;2023-04-01T01:04:24;9.75;70.25
75457;SHT31;64036;48.266;14.192;2023-04-01T01:07:12;9.74;70.49
75457;SHT31;64036;48.266;14.192;2023-04-01T01:10:19;9.71;70.70
75457;SHT31;64036;48.266;14.192;2023-04-01T01:16:24;9.65;71.09
75457;SHT31;64036;48.266;14.192;2023-04-01T01:19:47;9.61;71.36
75457;SHT31;64036;48.266;14.192;2023-04-01T01:36:20;9.49;71.91
75457;SHT31;64036;48.266;14.192;2023-04-01T01:39:02;9.47;72.08
75457;SHT31;64036;48.266;14.192;2023-04-01T01:41:31;9.44;72.18
75457;SHT31;64036;48.266;14.192;2023-04-01T01:44:00;9.40;72.07
75457;SHT31;64036;48.266;14.192;2023-04-01T01:46:32;9.39;71.61
75457;SHT31;64036;48.266;14.192;2023-04-01T01:48:59;9.40;71.28
75457;SHT31;64036;48.266;14.192;2023-04-01T01:51:26;9.40;71.24
75457;SHT31;64036;48.266;14.192;2023-04-01T01:53:53;9.39;71.17
75457;SHT31;64036;48.266;14.192;2023-04-01T01:56:20;9.40;70.80
75457;SHT31;64036;48.266;14.192;2023-04-01T01:58:52;9.40;70.93
75457;SHT31;64036;48.266;14.192;2023-04-01T02:01:24;9.41;70.90
75457;SHT31;64036;48.266;14.192;2023-04-01T02:03:53;9.43;70.76
75457;SHT31;64036;48.266;14.192;2023-04-01T02:06:26;9.43;70.71
75457;SHT31;64036;48.266;14.192;2023-04-01T02:09:01;9.43;70.71
75457;SHT31;64036;48.266;14.192;2023-04-01T02:11:36;9.44;70.68
75457;SHT31;64036;48.266;14.192;2023-04-01T02:14:45;9.43;70.70
75457;SHT31;64036;48.266;14.192;2023-04-01T02:17:32;9.44;70.59
75457;SHT31;64036;48.266;14.192;2023-04-01T02:20:10;9.45;70.64
75457;SHT31;64036;48.266;14.192;2023-04-01T02:23:02;9.44;70.56
75457;SHT31;64036;48.266;14.192;2023-04-01T02:25:38;9.44;70.63
75457;SHT31;64036;48.266;14.192;2023-04-01T02:28:09;9.44;70.78
75457;SHT31;64036;48.266;14.192;2023-04-01T02:30:41;9.44;70.70
75457;SHT31;64036;48.266;14.192;2023-04-01T02:33:09;9.45;70.58
75457;SHT31;64036;48.266;14.192;2023-04-01T02:35:36;9.46;70.66
75457;SHT31;64036;48.266;14.192;2023-04-01T02:38:02;9.45;70.56
75457;SHT31;64036;48.266;14.192;2023-04-01T02:44:16;9.43;71.05
75457;SHT31;64036;48.266;14.192;2023-04-01T02:47:04;9.42;71.22
75457;SHT31;64036;48.266;14.192;2023-04-01T02:49:33;9.40;71.54
75457;SHT31;64036;48.266;14.192;2023-04-01T02:51:58;9.40;71.61
75457;SHT31;64036;48.266;14.192;2023-04-01T02:54:24;9.39;71.64
75457;SHT31;64036;48.266;14.192;2023-04-01T02:56:52;9.39;71.39
75457;SHT31;64036;48.266;14.192;2023-04-01T02:59:23;9.38;71.58
75457;SHT31;64036;48.266;14.192;2023-04-01T03:01:56;9.37;71.60
75457;SHT31;64036;48.266;14.192;2023-04-01T03:04:32;9.35;71.63
75457;SHT31;64036;48.266;14.192;2023-04-01T03:07:05;9.33;71.64
75457;SHT31;64036;48.266;14.192;2023-04-01T03:09:31;9.33;71.56
75457;SHT31;64036;48.266;14.192;2023-04-01T03:11:57;9.33;71.62
75457;SHT31;64036;48.266;14.192;2023-04-01T03:14:23;9.34;71.52
75457;SHT31;64036;48.266;14.192;2023-04-01T03:16:49;9.38;71.29
75457;SHT31;64036;48.266;14.192;2023-04-01T03:19:17;9.40;71.29
75457;SHT31;64036;48.266;14.192;2023-04-01T03:21:49;9.42;71.51
75457;SHT31;64036;48.266;14.192;2023-04-01T03:24:19;9.43;71.83
75457;SHT31;64036;48.266;14.192;2023-04-01T03:26:45;9.39;72.00
75457;SHT31;64036;48.266;14.192;2023-04-01T03:29:15;9.37;72.26
75457;SHT31;64036;48.266;14.192;2023-04-01T03:32:00;9.34;72.61
75457;SHT31;64036;48.266;14.192;2023-04-01T03:34:26;9.31;72.69
75457;SHT31;64036;48.266;14.192;2023-04-01T03:36:53;9.30;72.86
75457;SHT31;64036;48.266;14.192;2023-04-01T03:39:22;9.28;72.98
75457;SHT31;64036;48.266;14.192;2023-04-01T03:41:52;9.26;72.98
75457;SHT31;64036;48.266;14.192;2023-04-01T03:44:21;9.26;72.87
75457;SHT31;64036;48.266;14.192;2023-04-01T03:46:47;9.29;72.89
75457;SHT31;64036;48.266;14.192;2023-04-01T03:49:16;9.29;72.96
75457;SHT31;64036;48.266;14.192;2023-04-01T03:51:43;9.30;72.97
75457;SHT31;64036;48.266;14.192;2023-04-01T03:54:09;9.31;72.75
75457;SHT31;64036;48.266;14.192;2023-04-01T03:56:39;9.33;72.70
75457;SHT31;64036;48.266;14.192;2023-04-01T03:59:06;9.34;72.73
75457;SHT31;64036;48.266;14.192;2023-04-01T04:01:33;9.35;72.52
75457;SHT31;64036;48.266;14.192;2023-04-01T04:04:04;9.37;72.41
75457;SHT31;64036;48.266;14.192;2023-04-01T04:06:41;9.36;72.48
75457;SHT31;64036;48.266;14.192;2023-04-01T04:09:11;9.36;72.54
75457;SHT31;64036;48.266;14.192;2023-04-01T04:11:37;9.36;72.55
75457;SHT31;64036;48.266;14.192;2023-04-01T04:14:06;9.35;72.55
75457;SHT31;64036;48.266;14.192;2023-04-01T04:16:34;9.35;72.56
75457;SHT31;64036;48.266;14.192;2023-04-01T04:19:03;9.35;72.49
75457;SHT31;64036;48.266;14.192;2023-04-01T04:21:30;9.35;72.50
75457;SHT31;64036;48.266;14.192;2023-04-01T04:23:59;9.34;72.51
75457;SHT31;64036;48.266;14.192;2023-04-01T04:26:25;9.35;72.57
75457;SHT31;64036;48.266;14.192;2023-04-01T04:28:54;9.35;72.63
75457;SHT31;64036;48.266;14.192;2023-04-01T04:31:21;9.34;72.60
75457;SHT31;64036;48.266;14.192;2023-04-01T04:33:49;9.33;72.60
75457;SHT31;64036;48.266;14.192;2023-04-01T04:36:19;9.32;72.59
75457;SHT31;64036;48.266;14.192;2023-04-01T04:38:51;9.28;72.65
75457;SHT31;64036;48.266;14.192;2023-04-01T04:41:20;9.26;72.70
75457;SHT31;64036;48.266;14.192;2023-04-01T04:43:51;9.24;72.74
75457;SHT31;64036;48.266;14.192;2023-04-01T04:46:24;9.22;72.85
75457;SHT31;64036;48.266;14.192;2023-04-01T04:49:08;9.20;72.89
75457;SHT31;64036;48.266;14.192;2023-04-01T04:51:37;9.19;72.90
75457;SHT31;64036;48.266;14.192;2023-04-01T04:54:11;9.19;73.00
75457;SHT31;64036;48.266;14.192;2023-04-01T04:56:48;9.21;72.85
75457;SHT31;64036;48.266;14.192;2023-04-01T04:59:20;9.25;72.74
75457;SHT31;64036;48.266;14.192;2023-04-01T05:01:56;9.27;72.70
75457;SHT31;64036;48.266;14.192;2023-04-01T05:04:25;9.30;72.57
75457;SHT31;64036;48.266;14.192;2023-04-01T05:09:54;9.40;72.20
75457;SHT31;64036;48.266;14.192;2023-04-01T05:12:23;9.46;71.98
75457;SHT31;64036;48.266;14.192;2023-04-01T05:14:51;9.51;71.76
75457;SHT31;64036;48.266;14.192;2023-04-01T05:17:23;9.55;71.58
75457;SHT31;64036;48.266;14.192;2023-04-01T05:20:07;9.61;71.22
75457;SHT31;64036;48.266;14.192;2023-04-01T05:22:34;9.65;71.04
75457;SHT31;64036;48.266;14.192;2023-04-01T05:24:59;9.68;71.12
75457;SHT31;64036;48.266;14.192;2023-04-01T05:27:28;9.74;71.16
75457;SHT31;64036;48.266;14.192;2023-04-01T05:29:57;9.76;71.22
75457;SHT31;64036;48.266;14.192;2023-04-01T05:32:32;9.78;71.09
75457;SHT31;64036;48.266;14.192;2023-04-01T05:34:57;9.85;70.82
75457;SHT31;64036;48.266;14.192;2023-04-01T05:37:23;9.89;70.84
75457;SHT31;64036;48.266;14.192;2023-04-01T05:39:49;9.93;70.50
75457;SHT31;64036;48.266;14.192;2023-04-01T05:42:20;9.97;70.11
75457;SHT31;64036;48.266;14.192;2023-04-01T05:44:46;10.05;70.01
75457;SHT31;64036;48.266;14.192;2023-04-01T05:47:24;10.13;70.00
75457;SHT31;64036;48.266;14.192;2023-04-01T05:49:52;10.20;69.79
75457;SHT31;64036;48.266;14.192;2023-04-01T05:52:28;10.29;69.86
75457;SHT31;64036;48.266;14.192;2023-04-01T05:54:54;10.28;70.34
75457;SHT31;64036;48.266;14.192;2023-04-01T05:57:23;10.21;71.07
75457;SHT31;64036;48.266;14.192;2023-04-01T05:59:54;10.04;71.71
75457;SHT31;64036;48.266;14.192;2023-04-01T06:02:23;9.90;72.23
75457;SHT31;64036;48.266;14.192;2023-04-01T06:04:49;9.81;72.69
75457;SHT31;64036;48.266;14.192;2023-04-01T06:07:20;9.75;73.03
75457;SHT31;64036;48.266;14.192;2023-04-01T06:09:45;9.76;73.20
75457;SHT31;64036;48.266;14.192;2023-04-01T06:14:46;9.90;73.16
75457;SHT31;64036;48.266;14.192;2023-04-01T06:17:26;10.04;73.02
75457;SHT31;64036;48.266;14.192;2023-04-01T06:20:15;10.21;72.70
75457;SHT31;64036;48.266;14.192;2023-04-01T06:27:03;10.57;71.53
75457;SHT31;64036;48.266;14.192;2023-04-01T06:30:02;10.60;71.15
75457;SHT31;64036;48.266;14.192;2023-04-01T06:33:35;10.56;71.24
75457;SHT31;64036;48.266;14.192;2023-04-01T06:39:36;10.68;71.42
75457;SHT31;64036;48.266;14.192;2023-04-01T06:42:11;10.87;71.34
75457;SHT31;64036;48.266;14.192;2023-04-01T06:45:10;11.16;71.05
75457;SHT31;64036;48.266;14.192;2023-04-01T06:50:48;12.84;68.98
75457;SHT31;64036;48.266;14.192;2023-04-01T06:54:02;14.33;67.11
75457;SHT31;64036;48.266;14.192;2023-04-01T06:56:37;14.90;64.61
75457;SHT31;64036;48.266;14.192;2023-04-01T06:59:15;14.75;63.68
75457;SHT31;64036;48.266;14.192;2023-04-01T07:01:49;14.45;63.93
75457;SHT31;64036;48.266;14.192;2023-04-01T07:04:24;14.24;63.82
75457;SHT31;64036;48.266;14.192;2023-04-01T07:07:04;14.10;63.81
75457;SHT31;64036;48.266;14.192;2023-04-01T07:09:41;14.07;63.87
75457;SHT31;64036;48.266;14.192;2023-04-01T07:12:18;14.07;63.93
75457;SHT31;64036;48.266;14.192;2023-04-01T07:15:16;14.05;64.25
75457;SHT31;64036;48.266;14.192;2023-04-01T07:17:52;13.98;63.03
75457;SHT31;64036;48.266;14.192;2023-04-01T07:20:29;13.81;62.01
75457;SHT31;64036;48.266;14.192;2023-04-01T07:23:06;13.60;61.71
75457;SHT31;64036;48.266;14.192;2023-04-01T07:25:46;13.47;61.63
75457;SHT31;64036;48.266;14.192;2023-04-01T07:28:17;13.40;60.23
75457;SHT31;64036;48.266;14.192;2023-04-01T07:30:52;13.36;60.33
75457;SHT31;64036;48.266;14.192;2023-04-01T07:37:02;13.42;60.06
75457;SHT31;64036;48.266;14.192;2023-04-01T07:43:14;13.42;59.93
75457;SHT31;64036;48.266;14.192;2023-04-01T07:45:48;13.31;60.53
75457;SHT31;64036;48.266;14.192;2023-04-01T08:11:07;13.66;58.77
75457;SHT31;64036;48.266;14.192;2023-04-01T08:14:29;13.67;58.90
75457;SHT31;64036;48.266;14.192;2023-04-01T08:17:05;14.81;56.08
75457;SHT31;64036;48.266;14.192;2023-04-01T08:22:39;17.42;51.06
75457;SHT31;64036;48.266;14.192;2023-04-01T08:25:14;18.60;47.81
75457;SHT31;64036;48.266;14.192;2023-04-01T08:27:48;19.44;45.67
75457;SHT31;64036;48.266;14.192;2023-04-01T08:30:25;20.32;44.43
75457;SHT31;64036;48.266;14.192;2023-04-01T08:33:12;21.26;42.78
75457;SHT31;64036;48.266;14.192;2023-04-01T08:38:34;22.50;39.88
75457;SHT31;64036;48.266;14.192;2023-04-01T08:41:27;22.22;39.85
75457;SHT31;64036;48.266;14.192;2023-04-01T08:56:14;19.93;42.41
75457;SHT31;64036;48.266;14.192;2023-04-01T09:05:43;21.06;39.70
75457;SHT31;64036;48.266;14.192;2023-04-01T09:08:41;20.43;40.17
75457;SHT31;64036;48.266;14.192;2023-04-01T09:14:19;20.98;40.07
75457;SHT31;64036;48.266;14.192;2023-04-01T09:16:57;20.52;40.39
75457;SHT31;64036;48.266;14.192;2023-04-01T09:31:04;17.76;45.49
75457;SHT31;64036;48.266;14.192;2023-04-01T09:33:46;17.37;45.96
75457;SHT31;64036;48.266;14.192;2023-04-01T09:48:38;15.29;49.73
75457;SHT31;64036;48.266;14.192;2023-04-01T10:00:08;15.24;49.75
75457;SHT31;64036;48.266;14.192;2023-04-01T10:16:21;15.16;51.07
75457;SHT31;64036;48.266;14.192;2023-04-01T10:28:51;15.81;50.64
75457;SHT31;64036;48.266;14.192;2023-04-01T10:40:35;15.62;50.19
75457;SHT31;64036;48.266;14.192;2023-04-01T11:08:07;16.74;47.42
75457;SHT31;64036;48.266;14.192;2023-04-01T11:19:50;17.10;46.74
75457;SHT31;64036;48.266;14.192;2023-04-01T11:31:47;16.69;45.79
75457;SHT31;64036;48.266;14.192;2023-04-01T11:34:39;16.64;46.35
75457;SHT31;64036;48.266;14.192;2023-04-01T11:37:43;16.65;45.79
75457;SHT31;64036;48.266;14.192;2023-04-01T11:46:42;17.13;46.49
75457;SHT31;64036;48.266;14.192;2023-04-01T11:55:12;18.02;45.09
75457;SHT31;64036;48.266;14.192;2023-04-01T12:08:44;17.36;45.53
75457;SHT31;64036;48.266;14.192;2023-04-01T12:11:45;17.31;45.30
75457;SHT31;64036;48.266;14.192;2023-04-01T12:14:35;17.18;45.16
75457;SHT31;64036;48.266;14.192;2023-04-01T12:34:49;16.32;47.22
75457;SHT31;64036;48.266;14.192;2023-04-01T12:57:50;14.58;60.29
75457;SHT31;64036;48.266;14.192;2023-04-01T13:00:59;14.06;62.37
75457;SHT31;64036;48.266;14.192;2023-04-01T13:03:50;14.00;62.97
75457;SHT31;64036;48.266;14.192;2023-04-01T13:17:13;14.80;61.38
75457;SHT31;64036;48.266;14.192;2023-04-01T13:20:18;14.89;61.15
75457;SHT31;64036;48.266;14.192;2023-04-01T13:22:54;15.04;60.61
75457;SHT31;64036;48.266;14.192;2023-04-01T13:25:54;15.15;60.75
75457;SHT31;64036;48.266;14.192;2023-04-01T13:28:59;15.22;60.55
75457;SHT31;64036;48.266;14.192;2023-04-01T13:34:36;15.25;59.72
75457;SHT31;64036;48.266;14.192;2023-04-01T13:40:47;15.67;60.38
75457;SHT31;64036;48.266;14.192;2023-04-01T13:43:39;15.64;59.25
75457;SHT31;64036;48.266;14.192;2023-04-01T13:46:42;15.65;58.87
75457;SHT31;64036;48.266;14.192;2023-04-01T13:55:53;16.01;57.62
75457;SHT31;64036;48.266;14.192;2023-04-01T14:08:40;15.68;56.45
75457;SHT31;64036;48.266;14.192;2023-04-01T14:29:18;14.25;59.46
75457;SHT31;64036;48.266;14.192;2023-04-01T14:44:30;13.95;60.55
75457;SHT31;64036;48.266;14.192;2023-04-01T14:47:48;13.65;61.62
75457;SHT31;64036;48.266;14.192;2023-04-01T14:50:30;13.45;62.10
75457;SHT31;64036;48.266;14.192;2023-04-01T14:55:51;13.11;62.48
75457;SHT31;64036;48.266;14.192;2023-04-01T15:09:39;13.10;63.01
75457;SHT31;64036;48.266;14.192;2023-04-01T15:28:41;12.37;64.57
75457;SHT31;64036;48.266;14.192;2023-04-01T15:31:25;12.43;64.62
75457;SHT31;64036;48.266;14.192;2023-04-01T15:37:28;12.49;63.81
75457;SHT31;64036;48.266;14.192;2023-04-01T15:43:48;12.54;62.98
75457;SHT31;64036;48.266;14.192;2023-04-01T15:52:23;12.37;63.07
75457;SHT31;64036;48.266;14.192;2023-04-01T15:58:19;12.19;62.79
75457;SHT31;64036;48.266;14.192;2023-04-01T16:04:27;12.02;63.57
75457;SHT31;64036;48.266;14.192;2023-04-01T16:30:03;11.48;65.91
75457;SHT31;64036;48.266;14.192;2023-04-01T16:32:41;11.43;66.41
75457;SHT31;64036;48.266;14.192;2023-04-01T16:38:21;11.26;66.76
75457;SHT31;64036;48.266;14.192;2023-04-01T16:46:58;11.11;67.30
75457;SHT31;64036;48.266;14.192;2023-04-01T16:52:58;10.99;67.31
75457;SHT31;64036;48.266;14.192;2023-04-01T16:55:47;10.94;67.43
75457;SHT31;64036;48.266;14.192;2023-04-01T17:01:49;10.82;67.67
75457;SHT31;64036;48.266;14.192;2023-04-01T17:04:54;10.77;67.96
75457;SHT31;64036;48.266;14.192;2023-04-01T17:19:49;10.55;69.75
75457;SHT31;64036;48.266;14.192;2023-04-01T17:31:33;10.35;70.72
75457;SHT31;64036;48.266;14.192;2023-04-01T17:43:49;10.26;71.05
75457;SHT31;64036;48.266;14.192;2023-04-01T17:46:37;10.26;71.26
75457;SHT31;64036;48.266;14.192;2023-04-01T17:56:06;10.16;71.67
75457;SHT31;64036;48.266;14.192;2023-04-01T18:02:25;10.10;71.83
75457;SHT31;64036;48.266;14.192;2023-04-01T18:05:22;10.10;71.75
75457;SHT31;64036;48.266;14.192;2023-04-01T18:08:23;10.10;71.81
75457;SHT31;64036;48.266;14.192;2023-04-01T18:17:23;10.09;71.89
75457;SHT31;64036;48.266;14.192;2023-04-01T18:25:33;10.09;71.92
75457;SHT31;64036;48.266;14.192;2023-04-01T18:31:20;10.10;71.88
75457;SHT31;64036;48.266;14.192;2023-04-01T18:34:02;10.10;71.82
75457;SHT31;64036;48.266;14.192;2023-04-01T18:39:46;10.08;71.79
75457;SHT31;64036;48.266;14.192;2023-04-01T18:42:52;10.07;71.89
75457;SHT31;64036;48.266;14.192;2023-04-01T18:51:52;10.08;71.83
75457;SHT31;64036;48.266;14.192;2023-04-01T18:54:30;10.08;71.84
75457;SHT31;64036;48.266;14.192;2023-04-01T18:57:12;10.07;71.83
75457;SHT31;64036;48.266;14.192;2023-04-01T19:00:02;10.06;71.93
75457;SHT31;64036;48.266;14.192;2023-04-01T19:02:45;10.06;71.84
75457;SHT31;64036;48.266;14.192;2023-04-01T19:05:34;10.06;71.70
75457;SHT31;64036;48.266;14.192;2023-04-01T19:14:34;10.07;71.65
75457;SHT31;64036;48.266;14.192;2023-04-01T19:20:47;10.08;71.79
75457;SHT31;64036;48.266;14.192;2023-04-01T19:23:40;10.09;71.70
75457;SHT31;64036;48.266;14.192;2023-04-01T19:26:23;10.10;71.78
75457;SHT31;64036;48.266;14.192;2023-04-01T19:47:38;10.11;72.19
75457;SHT31;64036;48.266;14.192;2023-04-01T19:50:40;10.12;72.26
75457;SHT31;64036;48.266;14.192;2023-04-01T19:53:15;10.13;72.39
75457;SHT31;64036;48.266;14.192;2023-04-01T19:56:17;10.15;72.46
75457;SHT31;64036;48.266;14.192;2023-04-01T19:59:02;10.16;72.41
75457;SHT31;64036;48.266;14.192;2023-04-01T20:25:25;10.13;73.24
75457;SHT31;64036;48.266;14.192;2023-04-01T20:28:30;10.11;73.30
75457;SHT31;64036;48.266;14.192;2023-04-01T20:34:08;10.12;73.45
75457;SHT31;64036;48.266;14.192;2023-04-01T20:42:27;10.12;73.33
75457;SHT31;64036;48.266;14.192;2023-04-01T20:45:23;10.10;73.29
75457;SHT31;64036;48.266;14.192;2023-04-01T20:48:18;10.06;73.14
75457;SHT31;64036;48.266;14.192;2023-04-01T20:51:18;10.02;72.98
75457;SHT31;64036;48.266;14.192;2023-04-01T20:54:12;10.00;72.91
75457;SHT31;64036;48.266;14.192;2023-04-01T20:57:31;9.99;72.86
75457;SHT31;64036;48.266;14.192;2023-04-01T21:22:06;9.99;72.55
75457;SHT31;64036;48.266;14.192;2023-04-01T21:35:27;10.06;72.41
75457;SHT31;64036;48.266;14.192;2023-04-01T21:47:30;10.05;72.60
75457;SHT31;64036;48.266;14.192;2023-04-01T21:54:03;10.06;72.57
75457;SHT31;64036;48.266;14.192;2023-04-01T22:13:11;10.06;72.85
75457;SHT31;64036;48.266;14.192;2023-04-01T22:21:18;10.03;73.01
75457;SHT31;64036;48.266;14.192;2023-04-01T22:32:55;9.92;72.76
75457;SHT31;64036;48.266;14.192;2023-04-01T22:44:24;9.87;71.67
75457;SHT31;64036;48.266;14.192;2023-04-01T22:56:51;9.87;71.64
75457;SHT31;64036;48.266;14.192;2023-04-01T23:02:30;9.84;72.00
75457;SHT31;64036;48.266;14.192;2023-04-01T23:05:12;9.81;72.41
75457;SHT31;64036;48.266;14.192;2023-04-01T23:08:01;9.75;72.77
75457;SHT31;64036;48.266;14.192;2023-04-01T23:11:17;9.72;73.03
75457;SHT31;64036;48.266;14.192;2023-04-01T23:14:19;9.69;73.25
75457;SHT31;64036;48.266;14.192;2023-04-01T23:17:17;9.65;73.42
75457;SHT31;64036;48.266;14.192;2023-04-01T23:27:13;9.55;73.86
75457;SHT31;64036;48.266;14.192;2023-04-01T23:29:46;9.51;73.95
75457;SHT31;64036;48.266;14.192;2023-04-01T23:32:15;9.49;74.00
75457;SHT31;64036;48.266;14.192;2023-04-01T23:34:55;9.48;74.15
75457;SHT31;64036;48.266;14.192;2023-04-01T23:37:26;9.48;74.22
75457;SHT31;64036;48.266;14.192;2023-04-01T23:39:56;9.48;74.31
75457;SHT31;64036;48.266;14.192;2023-04-01T23:42:30;9.45;74.43
75457;SHT31;64036;48.266;14.192;2023-04-01T23:45:03;9.44;74.44
75457;SHT31;64036;48.266;14.192;2023-04-01T23:47:38;9.42;74.61
75457;SHT31;64036;48.266;14.192;2023-04-01T23:50:39;9.40;74.70
75457;SHT31;64036;48.266;14.192;2023-04-01T23:53:20;9.39;74.83
75457;SHT31;64036;48.266;14.192;2023-04-01T23:55:51;9.37;74.90
75457;SHT31;64036;48.266;14.192;2023-04-01T23:58:27;9.36;74.98
